createdAt,value
2022-09-04T00:02:26.045Z,63.81
2022-09-04T00:05:07.915Z,64.00
2022-09-04T00:07:58.030Z,64.27
2022-09-04T00:10:30.529Z,64.31
2022-09-04T00:13:28.377Z,64.30
2022-09-04T00:16:09.758Z,64.59
2022-09-04T00:18:58.117Z,64.58
2022-09-04T00:21:31.524Z,64.96
2022-09-04T00:24:05.392Z,65.47
2022-09-04T00:26:46.297Z,65.61
2022-09-04T00:29:59.736Z,65.57
2022-09-04T00:32:45.530Z,65.83
2022-09-04T00:35:34.484Z,66.01
2022-09-04T00:38:26.833Z,66.31
2022-09-04T00:41:10.245Z,66.41
2022-09-04T00:44:02.075Z,66.67
2022-09-04T00:46:49.201Z,66.63
2022-09-04T00:49:37.579Z,66.80
2022-09-04T00:52:21.398Z,67.31
2022-09-04T00:55:28.784Z,67.49
2022-09-04T00:58:16.307Z,68.11
2022-09-04T01:00:47.648Z,68.24
2022-09-04T01:03:24.951Z,68.70
2022-09-04T01:06:23.128Z,68.85
2022-09-04T01:08:56.733Z,69.15
2022-09-04T01:11:52.962Z,69.20
2022-09-04T01:14:43.258Z,69.28
2022-09-04T01:17:42.251Z,69.54
2022-09-04T01:20:38.903Z,69.79
2022-09-04T01:23:45.573Z,70.33
2022-09-04T01:26:34.832Z,70.55
2022-09-04T01:29:40.701Z,70.81
2022-09-04T01:32:13.388Z,70.66
2022-09-04T01:35:02.742Z,71.14
2022-09-04T01:37:59.897Z,71.61
2022-09-04T01:40:37.709Z,71.80
2022-09-04T01:43:21.734Z,71.78
2022-09-04T01:46:02.560Z,72.10
2022-09-04T01:48:42.302Z,72.37
2022-09-04T01:51:19.564Z,73.29
2022-09-04T01:54:01.892Z,73.17
2022-09-04T01:56:52.877Z,73.16
2022-09-04T01:59:33.428Z,73.39
2022-09-04T02:02:14.165Z,74.29
2022-09-04T02:04:48.748Z,74.31
2022-09-04T02:07:50.295Z,74.97
2022-09-04T02:10:39.543Z,75.71
2022-09-04T02:13:17.862Z,77.69
2022-09-04T02:15:59.375Z,76.99
2022-09-04T02:18:37.302Z,76.75
2022-09-04T02:21:14.241Z,76.77
2022-09-04T02:24:03.397Z,76.65
2022-09-04T02:26:53.695Z,78.92
2022-09-04T02:29:47.370Z,79.06
2022-09-04T02:32:26.181Z,78.31
2022-09-04T02:35:27.652Z,78.23
2022-09-04T02:38:33.722Z,79.23
2022-09-04T02:41:27.161Z,80.00
2022-09-04T02:44:17.375Z,80.12
2022-09-04T02:47:06.020Z,79.89
2022-09-04T02:49:51.719Z,79.71
2022-09-04T02:52:43.249Z,81.28
2022-09-04T02:55:31.272Z,80.81
2022-09-04T02:58:33.043Z,82.45
2022-09-04T03:01:26.223Z,81.17
2022-09-04T03:04:05.840Z,81.72
2022-09-04T03:06:51.853Z,81.65
2022-09-04T03:09:42.956Z,83.33
2022-09-04T03:12:37.539Z,84.08
2022-09-04T03:15:09.506Z,83.97
2022-09-04T03:17:58.972Z,83.47
2022-09-04T03:20:37.224Z,84.72
2022-09-04T03:23:30.244Z,86.96
2022-09-04T03:26:19.003Z,85.61
2022-09-04T03:29:17.523Z,86.10
2022-09-04T03:32:15.481Z,86.45
2022-09-04T03:35:16.404Z,85.91
2022-09-04T03:38:01.989Z,85.79
2022-09-04T03:40:51.417Z,86.84
2022-09-04T03:43:50.241Z,86.92
2022-09-04T03:46:37.404Z,86.65
2022-09-04T03:49:09.426Z,87.46
2022-09-04T03:52:03.303Z,87.47
2022-09-04T03:54:43.462Z,87.26
2022-09-04T03:57:20.703Z,86.90
2022-09-04T04:00:16.113Z,87.08
2022-09-04T04:03:00.151Z,87.53
2022-09-04T04:05:40.804Z,90.91
2022-09-04T04:08:45.379Z,89.71
2022-09-04T04:11:43.295Z,89.78
2022-09-04T04:14:21.797Z,90.82
2022-09-04T04:17:12.609Z,93.73
2022-09-04T04:19:50.210Z,91.97
2022-09-04T04:22:41.120Z,91.22
2022-09-04T04:25:34.256Z,91.12
2022-09-04T04:28:28.139Z,91.17
2022-09-04T04:31:14.744Z,93.92
2022-09-04T04:34:18.974Z,93.21
2022-09-04T04:37:20.265Z,94.40
2022-09-04T04:40:03.349Z,96.19
2022-09-04T04:42:41.440Z,99.35
2022-09-04T04:45:51.820Z,97.36
2022-09-04T04:48:44.665Z,97.59
2022-09-04T04:51:41.715Z,97.43
2022-09-04T04:54:32.575Z,98.16
2022-09-04T04:57:36.526Z,98.21
2022-09-04T05:00:52.217Z,99.24
2022-09-04T05:03:54.592Z,99.44
2022-09-04T05:06:52.894Z,100.00
2022-09-04T05:09:48.621Z,100.00
2022-09-04T05:12:54.710Z,100.00
2022-09-04T05:16:07.488Z,100.00
2022-09-04T05:19:14.876Z,100.00
2022-09-04T05:22:10.096Z,100.00
2022-09-04T05:25:01.227Z,100.00
2022-09-04T05:27:45.816Z,100.00
2022-09-04T05:30:28.982Z,100.00
2022-09-04T05:33:33.366Z,100.00
2022-09-04T05:37:12.701Z,100.00
2022-09-04T05:39:55.734Z,100.00
2022-09-04T05:42:39.570Z,100.00
2022-09-04T05:45:32.703Z,100.00
2022-09-04T05:48:26.380Z,99.92
2022-09-04T05:51:34.922Z,100.00
2022-09-04T05:54:05.916Z,99.90
2022-09-04T05:56:53.436Z,99.88
2022-09-04T06:00:04.821Z,99.81
2022-09-04T06:02:47.366Z,99.41
2022-09-04T06:05:45.627Z,98.67
2022-09-04T06:08:41.608Z,98.71
2022-09-04T06:11:29.171Z,98.17
2022-09-04T06:14:25.812Z,97.81
2022-09-04T06:17:13.111Z,97.25
2022-09-04T06:20:09.022Z,96.72
2022-09-04T06:22:55.559Z,95.57
2022-09-04T06:25:47.200Z,94.97
2022-09-04T06:28:34.823Z,94.15
2022-09-04T06:31:09.882Z,94.41
2022-09-04T06:33:58.302Z,93.46
2022-09-04T06:36:57.614Z,93.13
2022-09-04T06:39:32.590Z,92.33
2022-09-04T06:42:01.845Z,92.12
2022-09-04T06:45:22.149Z,91.57
2022-09-04T06:47:58.412Z,91.15
2022-09-04T06:50:53.715Z,91.18
2022-09-04T06:53:39.079Z,90.68
2022-09-04T06:56:18.227Z,90.39
2022-09-04T06:59:26.426Z,89.54
2022-09-04T07:02:20.493Z,88.48
2022-09-04T07:04:55.862Z,88.46
2022-09-04T07:07:27.518Z,87.28
2022-09-04T07:10:11.156Z,86.91
2022-09-04T07:13:18.642Z,86.46
2022-09-04T07:15:57.311Z,85.88
2022-09-04T07:18:54.761Z,85.78
2022-09-04T07:22:05.800Z,85.40
2022-09-04T07:25:04.870Z,83.71
2022-09-04T07:28:02.235Z,83.75
2022-09-04T07:30:54.101Z,81.69
2022-09-04T07:33:46.620Z,82.59
2022-09-04T07:36:29.701Z,81.25
2022-09-04T07:39:15.365Z,81.46
2022-09-04T07:42:00.651Z,80.03
2022-09-04T07:45:01.471Z,79.81
2022-09-04T07:47:50.747Z,79.08
2022-09-04T07:50:37.238Z,78.77
2022-09-04T07:53:23.232Z,77.30
2022-09-04T07:56:11.787Z,76.96
2022-09-04T07:59:21.950Z,75.74
2022-09-04T08:02:04.663Z,75.62
2022-09-04T08:04:53.186Z,74.54
2022-09-04T08:07:35.618Z,73.59
2022-09-04T08:10:05.029Z,74.07
2022-09-04T08:13:11.126Z,73.57
2022-09-04T08:15:53.955Z,72.99
2022-09-04T08:18:37.961Z,72.95
2022-09-04T08:21:27.981Z,71.83
2022-09-04T08:24:11.992Z,71.58
2022-09-04T08:27:27.778Z,70.13
2022-09-04T08:30:14.505Z,69.41
2022-09-04T08:33:11.264Z,69.70
2022-09-04T08:36:18.119Z,69.26
2022-09-04T08:38:57.136Z,68.13
2022-09-04T08:41:49.377Z,67.31
2022-09-04T08:44:21.136Z,65.38
2022-09-04T08:47:40.232Z,65.21
2022-09-04T08:50:24.085Z,65.04
2022-09-04T08:53:29.792Z,65.17
2022-09-04T08:56:22.330Z,64.54
2022-09-04T08:59:02.686Z,63.57
2022-09-04T09:01:53.496Z,63.80
2022-09-04T09:04:44.702Z,62.96
2022-09-04T09:07:31.581Z,63.18
2022-09-04T09:10:37.629Z,62.86
2022-09-04T09:13:43.126Z,62.76
2022-09-04T09:16:20.450Z,63.03
2022-09-04T09:19:16.420Z,62.20
2022-09-04T09:22:03.612Z,61.85
2022-09-04T09:25:07.834Z,62.23
2022-09-04T09:28:00.744Z,59.39
2022-09-04T09:30:47.471Z,60.20
2022-09-04T09:33:37.488Z,59.08
2022-09-04T09:36:40.915Z,58.87
2022-09-04T09:39:10.414Z,58.60
2022-09-04T09:42:06.600Z,59.65
2022-09-04T09:44:54.935Z,58.69
2022-09-04T09:47:51.025Z,59.18
2022-09-04T09:50:28.595Z,58.17
2022-09-04T09:53:22.217Z,57.57
2022-09-04T09:55:57.767Z,57.87
2022-09-04T09:59:15.446Z,58.11
2022-09-04T10:02:21.503Z,55.75
2022-09-04T10:05:19.100Z,54.83
2022-09-04T10:07:50.781Z,55.85
2022-09-04T10:10:49.840Z,55.60
2022-09-04T10:13:37.339Z,54.34
2022-09-04T10:16:32.496Z,53.99
2022-09-04T10:19:12.083Z,54.10
2022-09-04T10:22:18.280Z,53.83
2022-09-04T10:25:07.744Z,53.14
2022-09-04T10:28:11.980Z,52.81
2022-09-04T10:31:17.142Z,51.86
2022-09-04T10:33:45.471Z,52.33
2022-09-04T10:36:28.050Z,51.64
2022-09-04T10:39:37.406Z,52.39
2022-09-04T10:42:39.213Z,52.25
2022-09-04T10:45:27.901Z,51.25
2022-09-04T10:48:28.493Z,49.96
2022-09-04T10:50:57.803Z,49.71
2022-09-04T10:53:53.577Z,49.75
2022-09-04T10:56:35.973Z,48.37
2022-09-04T10:59:31.817Z,49.33
2022-09-04T11:02:18.570Z,48.34
2022-09-04T11:05:19.300Z,48.72
2022-09-04T11:08:29.322Z,49.15
2022-09-04T11:11:18.275Z,48.72
2022-09-04T11:14:07.070Z,49.17
2022-09-04T11:16:51.353Z,48.02
2022-09-04T11:19:44.672Z,48.17
2022-09-04T11:22:35.654Z,47.92
2022-09-04T11:25:25.622Z,47.96
2022-09-04T11:28:21.032Z,46.40
2022-09-04T11:31:11.270Z,45.92
2022-09-04T11:33:42.698Z,46.88
2022-09-04T11:36:20.000Z,46.79
2022-09-04T11:39:16.713Z,46.72
2022-09-04T11:42:21.241Z,45.87
2022-09-04T11:45:08.551Z,45.33
2022-09-04T11:47:57.272Z,45.74
2022-09-04T11:51:02.134Z,45.54
2022-09-04T11:53:49.202Z,44.20
2022-09-04T11:56:45.972Z,43.10
2022-09-04T11:59:23.730Z,43.72
2022-09-04T12:02:31.709Z,43.50
2022-09-04T12:05:09.247Z,42.17
2022-09-04T12:08:03.859Z,43.83
2022-09-04T12:10:46.467Z,42.82
2022-09-04T12:13:40.814Z,43.89
2022-09-04T12:16:33.592Z,43.52
2022-09-04T12:19:47.582Z,44.13
2022-09-04T12:22:46.250Z,44.32
2022-09-04T12:25:38.062Z,43.97
2022-09-04T12:28:40.603Z,44.78
2022-09-04T12:31:21.439Z,45.06
2022-09-04T12:34:21.159Z,44.83
2022-09-04T12:37:20.212Z,45.01
2022-09-04T12:39:57.740Z,44.83
2022-09-04T12:42:36.624Z,44.32
2022-09-04T12:45:13.670Z,44.77
2022-09-04T12:48:09.923Z,44.36
2022-09-04T12:50:48.099Z,44.38
2022-09-04T12:53:35.215Z,44.09
2022-09-04T12:56:10.519Z,44.63
2022-09-04T12:58:44.938Z,44.40
2022-09-04T13:01:23.176Z,43.66
2022-09-04T13:04:22.057Z,42.24
2022-09-04T13:07:24.563Z,42.36
2022-09-04T13:10:03.013Z,42.14
2022-09-04T13:12:49.432Z,41.66
2022-09-04T13:15:38.371Z,41.72
2022-09-04T13:18:21.541Z,40.65
2022-09-04T13:21:13.907Z,41.33
2022-09-04T13:23:51.451Z,41.64
2022-09-04T13:26:30.513Z,41.64
2022-09-04T13:29:29.925Z,41.33
2022-09-04T13:32:23.243Z,41.19
2022-09-04T13:35:28.288Z,41.16
2022-09-04T13:37:59.786Z,41.18
2022-09-04T13:40:47.015Z,41.44
2022-09-04T13:43:33.427Z,40.61
2022-09-04T13:46:12.146Z,40.92
2022-09-04T13:48:47.945Z,41.07
2022-09-04T13:51:31.167Z,41.57
2022-09-04T13:54:11.753Z,41.51
2022-09-04T13:56:51.238Z,40.99
2022-09-04T13:59:22.142Z,40.99
2022-09-04T14:01:55.065Z,41.42
2022-09-04T14:04:36.871Z,41.05
2022-09-04T14:07:17.652Z,41.20
2022-09-04T14:09:50.926Z,40.78
2022-09-04T14:12:35.785Z,40.89
2022-09-04T14:15:19.727Z,40.59
2022-09-04T14:17:54.976Z,40.74
2022-09-04T14:20:29.309Z,40.10
2022-09-04T14:23:10.245Z,40.85
2022-09-04T14:26:02.659Z,41.39
2022-09-04T14:28:44.046Z,41.03
2022-09-04T14:31:38.425Z,40.59
2022-09-04T14:34:29.065Z,40.53
2022-09-04T14:37:08.810Z,40.66
2022-09-04T14:39:49.333Z,40.94
2022-09-04T14:42:42.886Z,40.93
2022-09-04T14:45:24.681Z,40.75
2022-09-04T14:48:00.178Z,39.93
2022-09-04T14:50:31.246Z,40.45
2022-09-04T14:53:08.822Z,40.05
2022-09-04T14:56:06.289Z,40.57
2022-09-04T14:58:41.481Z,40.44
2022-09-04T15:01:22.338Z,40.59
2022-09-04T15:04:23.210Z,40.47
2022-09-04T15:07:11.214Z,40.38
2022-09-04T15:09:48.585Z,39.80
2022-09-04T15:12:32.803Z,40.26
2022-09-04T15:15:20.477Z,40.65
2022-09-04T15:17:57.353Z,40.94
2022-09-04T15:20:31.121Z,40.88
2022-09-04T15:23:14.543Z,40.92
2022-09-04T15:25:59.746Z,41.34
2022-09-04T15:28:48.656Z,41.27
2022-09-04T15:31:21.933Z,40.77
2022-09-04T15:33:59.228Z,41.06
2022-09-04T15:36:28.061Z,40.60
2022-09-04T15:39:00.257Z,41.09
2022-09-04T15:41:50.188Z,40.75
2022-09-04T15:44:30.118Z,40.78
2022-09-04T15:47:23.621Z,40.36
2022-09-04T15:50:04.644Z,41.17
2022-09-04T15:52:42.416Z,41.27
2022-09-04T15:55:31.863Z,41.44
2022-09-04T15:58:11.395Z,42.01
2022-09-04T16:01:06.601Z,42.20
2022-09-04T16:03:47.639Z,42.56
2022-09-04T16:06:32.421Z,42.67
2022-09-04T16:09:03.841Z,42.82
2022-09-04T16:11:32.232Z,42.91
2022-09-04T16:14:08.858Z,43.21
2022-09-04T16:16:53.462Z,43.05
2022-09-04T16:19:34.080Z,43.26
2022-09-04T16:22:40.314Z,43.03
2022-09-04T16:25:13.022Z,41.43
2022-09-04T16:27:49.224Z,39.76
2022-09-04T16:30:47.268Z,38.95
2022-09-04T16:33:28.031Z,37.09
2022-09-04T16:36:17.824Z,36.19
2022-09-04T16:39:05.952Z,34.95
2022-09-04T16:41:45.140Z,32.50
2022-09-04T16:44:27.898Z,32.75
2022-09-04T16:47:17.952Z,33.23
2022-09-04T16:49:57.968Z,32.38
2022-09-04T16:52:34.697Z,32.00
2022-09-04T16:55:11.672Z,31.76
2022-09-04T16:58:07.636Z,32.12
2022-09-04T17:01:14.175Z,32.01
2022-09-04T17:03:43.146Z,31.92
2022-09-04T17:06:35.473Z,31.73
2022-09-04T17:09:28.404Z,32.16
2022-09-04T17:12:07.492Z,32.38
2022-09-04T17:14:43.624Z,33.27
2022-09-04T17:17:31.286Z,34.08
2022-09-04T17:20:20.776Z,34.95
2022-09-04T17:27:28.049Z,35.69
2022-09-04T17:29:04.063Z,36.87
2022-09-04T17:29:37.206Z,37.49
2022-09-04T17:39:52.888Z,38.57
2022-09-04T17:40:33.905Z,39.52
2022-09-04T17:41:33.310Z,40.15
2022-09-04T17:42:20.382Z,40.86
2022-09-04T17:45:02.458Z,41.60
2022-09-04T17:47:33.351Z,42.24
2022-09-04T17:50:02.650Z,42.96
2022-09-04T17:52:34.352Z,43.60
2022-09-04T17:55:13.833Z,44.50
2022-09-04T17:57:53.580Z,45.17
2022-09-04T18:00:34.729Z,45.74
2022-09-04T18:03:16.993Z,46.57
2022-09-04T18:05:53.570Z,47.07
2022-09-04T18:08:33.046Z,47.61
2022-09-04T18:11:20.145Z,48.05
2022-09-04T18:14:02.463Z,48.53
2022-09-04T18:16:37.088Z,48.96
2022-09-04T18:19:17.375Z,49.72
2022-09-04T18:22:25.557Z,50.27
2022-09-04T18:24:59.790Z,50.69
2022-09-04T18:28:11.600Z,51.18
2022-09-04T18:37:09.579Z,51.91
2022-09-04T18:37:27.101Z,52.56
2022-09-04T18:37:49.147Z,53.02
2022-09-04T18:44:25.875Z,53.05
2022-09-04T18:50:23.333Z,54.76
2022-09-04T18:50:25.800Z,53.92
2022-09-04T18:50:38.687Z,54.40
2022-09-04T18:52:23.196Z,55.30
2022-09-04T18:55:02.657Z,55.98
2022-09-04T18:57:32.711Z,55.86
2022-09-04T19:00:10.626Z,56.51
2022-09-04T19:02:54.040Z,56.69
2022-09-04T19:05:44.952Z,57.23
2022-09-04T19:08:24.009Z,57.56
2022-09-04T19:11:03.580Z,58.10
2022-09-04T19:14:09.868Z,58.26
2022-09-04T19:16:57.826Z,58.61
2022-09-04T19:19:58.868Z,58.88
2022-09-04T19:22:56.623Z,59.32
2022-09-04T19:25:41.030Z,59.29
2022-09-04T19:28:16.530Z,59.85
2022-09-04T19:30:55.411Z,60.38
2022-09-04T19:33:45.292Z,60.46
2022-09-04T19:36:13.781Z,60.96
2022-09-04T19:45:56.650Z,60.94
2022-09-04T19:46:07.887Z,62.74
2022-09-04T19:46:15.289Z,61.87
2022-09-04T19:48:19.244Z,62.31
2022-09-04T19:53:23.367Z,63.00
2022-09-04T19:54:12.189Z,63.00
2022-09-04T19:57:32.008Z,63.61
2022-09-04T20:00:31.143Z,64.05
2022-09-04T20:03:08.132Z,64.35
2022-09-04T20:05:40.234Z,64.65
2022-09-04T20:08:14.822Z,65.60
2022-09-04T20:11:01.831Z,65.52
2022-09-04T20:13:35.424Z,65.71
2022-09-04T20:16:25.247Z,66.42
2022-09-04T20:19:02.842Z,66.40
2022-09-04T20:21:49.423Z,67.36
2022-09-04T20:24:23.330Z,67.17
2022-09-04T20:27:00.437Z,67.78
2022-09-04T20:29:43.045Z,67.98
2022-09-04T20:32:11.706Z,69.91
2022-09-04T20:35:13.261Z,69.15
2022-09-04T20:37:48.950Z,70.07
2022-09-04T20:40:36.668Z,70.10
2022-09-04T20:43:27.152Z,70.56
2022-09-04T20:52:42.317Z,70.61
2022-09-04T20:52:57.196Z,71.39
2022-09-04T20:53:05.491Z,71.62
2022-09-04T20:55:59.089Z,70.97
2022-09-04T21:03:06.583Z,71.17
2022-09-04T21:03:17.137Z,71.44
2022-09-04T21:04:43.112Z,71.62
2022-09-04T21:07:27.294Z,71.89
2022-09-04T21:10:10.215Z,71.95
2022-09-04T21:13:14.347Z,74.00
2022-09-04T21:16:05.460Z,73.53
2022-09-04T21:18:40.199Z,73.19
2022-09-04T21:21:37.615Z,73.95
2022-09-04T21:24:15.261Z,73.97
2022-09-04T21:26:52.555Z,74.42
2022-09-04T21:29:30.135Z,73.79
2022-09-04T21:32:26.275Z,73.11
2022-09-04T21:35:18.925Z,73.13
2022-09-04T21:38:15.056Z,73.14
2022-09-04T21:40:51.367Z,73.79
2022-09-04T21:43:45.715Z,73.27
2022-09-04T21:46:48.596Z,73.61
2022-09-04T21:49:26.302Z,73.41
2022-09-04T21:52:10.346Z,73.82
2022-09-04T21:57:49.083Z,73.58
2022-09-04T22:02:28.327Z,73.90
2022-09-04T22:02:38.113Z,73.66
2022-09-04T22:04:44.978Z,74.27
2022-09-04T22:12:13.063Z,73.68
2022-09-04T22:13:32.170Z,74.12
2022-09-04T22:13:54.694Z,74.88
2022-09-04T22:17:03.691Z,74.36
2022-09-04T22:19:38.009Z,74.69
2022-09-04T22:22:44.168Z,74.47
2022-09-04T22:25:28.521Z,74.46
2022-09-04T22:28:41.477Z,74.29
2022-09-04T22:31:45.210Z,74.40
2022-09-04T22:34:53.742Z,74.52
2022-09-04T22:37:35.334Z,74.97
2022-09-04T22:40:16.156Z,75.44
2022-09-04T22:42:56.864Z,75.26
2022-09-04T22:45:41.139Z,74.95
2022-09-04T22:48:31.817Z,75.30
2022-09-04T22:51:16.501Z,75.53
2022-09-04T22:53:56.849Z,75.50
2022-09-04T22:57:03.107Z,75.62
2022-09-04T23:00:10.817Z,75.77
2022-09-04T23:03:33.306Z,76.17
2022-09-04T23:07:47.063Z,76.12
2022-09-04T23:13:52.626Z,76.40
2022-09-04T23:13:54.382Z,76.32
2022-09-04T23:15:32.637Z,76.96
2022-09-04T23:20:46.812Z,76.99
2022-09-04T23:26:33.725Z,77.05
2022-09-04T23:26:45.336Z,77.24
2022-09-04T23:27:52.375Z,78.47
2022-09-04T23:30:25.646Z,77.73
2022-09-04T23:32:59.488Z,77.67
2022-09-04T23:36:14.862Z,77.74
2022-09-04T23:39:38.173Z,77.71
2022-09-04T23:42:59.247Z,78.11
2022-09-04T23:46:08.954Z,78.77
2022-09-04T23:49:39.737Z,78.47
2022-09-04T23:52:53.071Z,78.86
2022-09-04T23:56:07.434Z,78.97
2022-09-04T23:59:32.127Z,80.06
